Time;durP1;ratioP1;P1;durP2;ratioP2;P2;SDS_P1;SDS_P2;PMS_P1;PMS_P2;Temp;Humidity;BMP_temperature;BMP_pressure;BME280_temperature;BME280_humidity;BME280_pressure;Samples;Min_cycle;Max_cycle;Signal;HPM_P1;HPM_P2
2021/04/27 00:01:17;;;;;;;5.68;3.58;;;7.80;53.30;;;;;;5032805;28;20038;-72
2021/04/27 00:03:48;;;;;;;7.32;3.30;;;7.80;53.30;;;;;;5015783;28;20046;-73
2021/04/27 00:06:22;;;;;;;5.50;3.95;;;7.70;53.50;;;;;;5015599;28;20065;-73
2021/04/27 00:08:48;;;;;;;5.53;4.15;;;7.70;54.30;;;;;;5033213;28;20124;-73
2021/04/27 00:11:14;;;;;;;5.28;3.45;;;7.70;53.50;;;;;;5032768;28;20523;-73
2021/04/27 00:13:40;;;;;;;5.03;3.53;;;7.60;53.60;;;;;;4998935;28;20076;-72
2021/04/27 00:16:05;;;;;;;6.65;3.60;;;7.60;53.70;;;;;;4999492;28;20049;-73
2021/04/27 00:18:39;;;;;;;5.90;3.45;;;7.60;53.80;;;;;;5033146;28;20037;-72
2021/04/27 00:21:04;;;;;;;7.35;3.25;;;7.60;53.90;;;;;;5015969;28;20061;-74
2021/04/27 00:23:30;;;;;;;7.20;3.97;;;7.60;53.80;;;;;;4999992;28;20057;-72
2021/04/27 00:25:56;;;;;;;5.85;4.00;;;7.50;53.80;;;;;;5001086;28;20045;-72
2021/04/27 00:28:23;;;;;;;5.60;3.90;;;7.50;54.00;;;;;;5033114;28;20519;-71
2021/04/27 00:30:56;;;;;;;5.93;3.58;;;7.50;54.00;;;;;;5018435;28;20041;-73
2021/04/27 00:33:22;;;;;;;6.03;3.60;;;7.50;54.10;;;;;;5017479;28;20358;-73
2021/04/27 00:35:48;;;;;;;5.80;4.05;;;7.40;54.10;;;;;;4999704;28;20064;-72
2021/04/27 00:38:16;;;;;;;7.20;4.18;;;7.40;54.20;;;;;;5033148;28;20053;-72
2021/04/27 00:40:41;;;;;;;7.13;4.55;;;7.40;54.40;;;;;;4998972;28;20091;-72
2021/04/27 00:43:07;;;;;;;5.82;4.20;;;7.40;54.40;;;;;;4998440;28;20049;-74
2021/04/27 00:45:34;;;;;;;7.32;4.45;;;7.40;54.50;;;;;;5017350;28;20085;-73
2021/04/27 00:48:00;;;;;;;6.20;4.32;;;7.30;54.40;;;;;;5017009;28;20100;-72
2021/04/27 00:50:35;;;;;;;6.93;4.10;;;7.30;54.60;;;;;;5000073;28;20500;-73
2021/04/27 00:53:01;;;;;;;7.53;4.60;;;7.30;54.70;;;;;;5036616;28;20045;-72
2021/04/27 00:55:28;;;;;;;10.50;4.38;;;7.20;54.70;;;;;;5019098;28;20045;-72
2021/04/27 00:57:54;;;;;;;6.63;3.90;;;7.30;54.70;;;;;;5002849;28;20044;-73
2021/04/27 01:00:22;;;;;;;8.45;4.68;;;7.30;54.70;;;;;;5017439;28;20069;-73
2021/04/27 01:02:48;;;;;;;9.30;4.10;;;7.20;54.70;;;;;;5018724;28;20041;-71
2021/04/27 01:05:17;;;;;;;6.93;4.70;;;7.20;54.70;;;;;;5019134;28;20057;-73
2021/04/27 01:07:48;;;;;;;6.45;4.05;;;7.20;54.90;;;;;;5036876;28;20045;-72
2021/04/27 01:10:13;;;;;;;6.47;4.13;;;7.10;54.90;;;;;;5001412;28;20103;-72
2021/04/27 01:12:42;;;;;;;7.65;4.28;;;7.10;54.90;;;;;;4984168;28;20041;-72
2021/04/27 01:15:16;;;;;;;6.80;4.57;;;7.10;55.00;;;;;;5017660;28;20041;-72
2021/04/27 01:17:42;;;;;;;6.82;4.00;;;7.10;55.20;;;;;;4983542;28;20374;-72
2021/04/27 01:20:17;;;;;;;6.55;4.30;;;7.00;55.10;;;;;;5033606;28;20053;-73
2021/04/27 01:23:01;;;;;;;8.40;4.78;;;7.00;55.30;;;;;;5000412;28;20482;-72
2021/04/27 01:25:33;;;;;;;6.50;4.35;;;7.00;55.30;;;;;;5016600;28;20064;-71
2021/04/27 01:28:00;;;;;;;6.28;3.75;;;7.00;55.30;;;;;;4994316;28;20054;-73
2021/04/27 01:30:28;;;;;;;8.13;3.97;;;7.00;55.40;;;;;;5010228;28;20403;-72
2021/04/27 01:32:54;;;;;;;6.55;4.28;;;7.00;55.40;;;;;;4994623;28;20402;-72
2021/04/27 01:35:20;;;;;;;8.45;4.40;;;6.90;55.50;;;;;;4977302;28;20050;-72
2021/04/27 01:37:48;;;;;;;6.68;3.95;;;6.90;55.50;;;;;;4994517;28;20042;-72
2021/04/27 01:40:14;;;;;;;6.07;3.65;;;6.90;55.60;;;;;;4978563;28;20103;-72
2021/04/27 01:42:40;;;;;;;8.95;4.07;;;6.90;55.80;;;;;;5010201;28;20042;-73
2021/04/27 01:45:06;;;;;;;5.43;3.83;;;6.90;55.70;;;;;;5010818;28;20068;-73
2021/04/27 01:47:34;;;;;;;6.63;4.55;;;6.90;55.70;;;;;;5010106;28;20124;-73
2021/04/27 01:50:06;;;;;;;6.18;3.67;;;6.90;55.70;;;;;;4980367;28;20125;-73
2021/04/27 01:52:35;;;;;;;10.07;4.20;;;6.90;55.80;;;;;;4994171;28;20097;-73
2021/04/27 01:55:01;;;;;;;8.88;4.00;;;6.80;55.80;;;;;;4994080;28;20423;-73
2021/04/27 01:57:26;;;;;;;7.50;4.15;;;6.80;55.90;;;;;;4993625;28;20072;-73
2021/04/27 01:59:53;;;;;;;6.43;4.05;;;6.80;56.00;;;;;;5010000;28;20045;-72
2021/04/27 02:02:20;;;;;;;7.60;3.78;;;6.80;56.10;;;;;;4993746;28;20073;-73
2021/04/27 02:04:45;;;;;;;5.05;4.15;;;6.80;56.10;;;;;;5010255;28;20069;-73
2021/04/27 02:07:11;;;;;;;8.77;3.92;;;6.70;56.10;;;;;;5010256;28;20053;-73
2021/04/27 02:09:37;;;;;;;7.28;3.92;;;6.70;56.10;;;;;;5010892;28;20080;-73
2021/04/27 02:12:03;;;;;;;6.10;4.45;;;6.70;56.30;;;;;;4993829;28;20061;-72
2021/04/27 02:14:29;;;;;;;10.60;3.92;;;6.70;56.30;;;;;;5010777;28;20077;-72
2021/04/27 02:17:07;;;;;;;9.32;4.45;;;6.60;56.40;;;;;;4993859;28;20497;-72
2021/04/27 02:19:33;;;;;;;7.10;3.97;;;6.60;56.40;;;;;;5010804;28;20538;-72
2021/04/27 02:22:01;;;;;;;6.25;3.80;;;6.60;56.50;;;;;;5011235;28;20141;-72
2021/04/27 02:24:27;;;;;;;7.57;4.15;;;6.60;56.50;;;;;;4993359;28;20049;-72
2021/04/27 02:26:53;;;;;;;6.28;4.35;;;6.60;56.60;;;;;;4993442;28;20045;-72
2021/04/27 02:29:19;;;;;;;5.40;4.25;;;6.50;56.60;;;;;;4993252;28;20526;-73
2021/04/27 02:31:45;;;;;;;8.00;4.35;;;6.50;56.70;;;;;;5009167;28;20050;-72
2021/04/27 02:34:13;;;;;;;6.78;3.88;;;6.50;56.80;;;;;;4993333;28;20056;-71
2021/04/27 02:36:40;;;;;;;7.75;4.20;;;6.50;56.90;;;;;;4976839;28;20068;-72
2021/04/27 02:39:09;;;;;;;5.40;3.83;;;6.50;56.90;;;;;;4993636;28;20084;-71
2021/04/27 02:41:35;;;;;;;6.93;4.32;;;6.40;57.70;;;;;;4976908;28;20058;-72
2021/04/27 02:44:01;;;;;;;7.63;4.05;;;6.40;57.00;;;;;;5009701;28;20131;-73
2021/04/27 02:46:28;;;;;;;7.53;4.18;;;6.40;57.00;;;;;;5010522;28;20046;-74
2021/04/27 02:48:56;;;;;;;8.18;5.10;;;6.40;57.10;;;;;;5009936;28;20042;-72
2021/04/27 02:51:22;;;;;;;8.55;4.75;;;6.40;57.20;;;;;;5010936;28;20049;-73
2021/04/27 02:53:48;;;;;;;6.03;3.78;;;6.30;57.20;;;;;;5013556;28;20116;-73
2021/04/27 02:56:20;;;;;;;7.50;4.47;;;6.30;57.30;;;;;;5013528;28;20217;-73
2021/04/27 02:58:57;;;;;;;8.32;4.60;;;6.30;57.40;;;;;;5013113;28;20087;-73
2021/04/27 03:01:23;;;;;;;6.90;4.35;;;6.30;57.40;;;;;;5012804;28;20093;-73
2021/04/27 03:03:50;;;;;;;7.63;4.38;;;6.30;57.50;;;;;;5012667;28;20042;-73
2021/04/27 03:06:15;;;;;;;7.00;4.90;;;6.30;57.50;;;;;;5014832;28;20125;-73
2021/04/27 03:08:41;;;;;;;12.55;4.82;;;6.30;57.60;;;;;;5012970;28;20046;-73
2021/04/27 03:11:10;;;;;;;5.15;4.22;;;6.20;57.60;;;;;;5013654;28;20054;-73
2021/04/27 03:13:35;;;;;;;7.10;4.63;;;6.20;57.70;;;;;;5014063;28;20052;-73
2021/04/27 03:16:01;;;;;;;7.35;4.40;;;6.20;58.40;;;;;;4997166;28;20045;-73
2021/04/27 03:18:28;;;;;;;8.10;4.85;;;6.20;57.80;;;;;;5015094;28;20172;-76
2021/04/27 03:20:53;;;;;;;6.43;4.80;;;6.20;57.90;;;;;;5014814;28;20092;-73
2021/04/27 03:23:21;;;;;;;7.50;4.65;;;6.10;57.90;;;;;;5013406;28;20048;-73
2021/04/27 03:25:49;;;;;;;9.10;4.68;;;6.10;57.90;;;;;;5014196;28;20096;-73
2021/04/27 03:28:28;;;;;;;9.32;4.70;;;6.10;58.00;;;;;;5022763;28;20063;-73
2021/04/27 03:31:24;;;;;;;9.00;5.20;;;6.10;58.00;;;;;;4985981;28;20092;-72
2021/04/27 03:33:50;;;;;;;6.85;4.72;;;6.10;58.10;;;;;;4994314;28;20563;-73
2021/04/27 03:36:15;;;;;;;8.23;4.90;;;6.10;58.20;;;;;;4994753;28;20042;-72
2021/04/27 03:38:41;;;;;;;6.60;4.95;;;6.00;58.10;;;;;;5009615;28;20057;-72
2021/04/27 03:41:07;;;;;;;7.07;4.60;;;6.00;58.20;;;;;;4994773;28;20046;-72
2021/04/27 03:43:33;;;;;;;7.32;4.68;;;6.00;58.30;;;;;;4993660;28;20057;-72
2021/04/27 03:45:58;;;;;;;10.63;5.78;;;6.00;58.30;;;;;;5009438;28;20129;-73
2021/04/27 03:48:24;;;;;;;9.48;5.63;;;6.00;58.30;;;;;;4994490;28;20088;-73
2021/04/27 03:50:50;;;;;;;8.85;5.50;;;6.00;58.40;;;;;;5008637;28;20049;-73
2021/04/27 03:53:16;;;;;;;7.88;5.00;;;5.90;58.50;;;;;;4994315;28;20399;-72
2021/04/27 03:55:42;;;;;;;8.00;5.47;;;6.00;58.60;;;;;;4976253;28;20065;-73
2021/04/27 03:58:07;;;;;;;8.50;5.43;;;5.90;58.50;;;;;;5009734;28;20051;-72
2021/04/27 04:00:34;;;;;;;10.25;5.40;;;5.90;58.60;;;;;;5009151;28;20138;-76
2021/04/27 04:03:00;;;;;;;7.40;5.55;;;5.90;58.60;;;;;;4993824;28;20120;-75
2021/04/27 04:05:26;;;;;;;9.27;5.65;;;5.90;58.60;;;;;;4992133;28;20097;-73
2021/04/27 04:07:52;;;;;;;6.35;5.65;;;5.90;58.70;;;;;;4993229;28;20394;-72
2021/04/27 04:10:18;;;;;;;7.78;5.45;;;5.80;58.60;;;;;;4992740;28;20121;-72
2021/04/27 04:12:46;;;;;;;7.28;5.82;;;5.90;58.80;;;;;;4993185;28;20050;-73
2021/04/27 04:15:14;;;;;;;8.77;5.65;;;5.90;58.90;;;;;;4992254;28;20047;-72
2021/04/27 04:17:40;;;;;;;9.43;5.72;;;5.90;58.80;;;;;;5007873;28;20137;-73
2021/04/27 04:20:17;;;;;;;9.70;5.65;;;5.80;58.80;;;;;;4992332;28;20049;-72
2021/04/27 04:22:43;;;;;;;7.32;5.50;;;5.80;58.90;;;;;;4993048;28;20100;-73
2021/04/27 04:25:10;;;;;;;6.68;5.93;;;5.80;59.70;;;;;;4975674;28;20046;-73
2021/04/27 04:27:36;;;;;;;9.40;6.05;;;5.80;59.00;;;;;;4992155;28;20135;-73
2021/04/27 04:30:05;;;;;;;8.68;5.85;;;5.80;59.00;;;;;;4991137;28;20125;-73
2021/04/27 04:32:30;;;;;;;8.85;5.80;;;5.80;59.20;;;;;;5008238;28;20042;-73
2021/04/27 04:34:56;;;;;;;9.02;6.47;;;5.70;59.10;;;;;;5007573;28;20053;-73
2021/04/27 04:37:22;;;;;;;8.20;6.57;;;5.70;59.10;;;;;;4993233;28;20042;-72
2021/04/27 04:39:48;;;;;;;8.57;6.40;;;5.70;59.10;;;;;;4991258;28;20043;-72
2021/04/27 04:42:20;;;;;;;7.60;6.10;;;5.70;59.10;;;;;;5007744;28;20046;-72
2021/04/27 04:44:46;;;;;;;10.10;6.03;;;5.70;59.20;;;;;;4990920;28;20394;-72
2021/04/27 04:47:12;;;;;;;9.05;5.80;;;5.80;59.30;;;;;;4991598;28;20046;-72
2021/04/27 04:49:38;;;;;;;7.10;5.88;;;5.70;59.20;;;;;;4991834;28;20078;-73
2021/04/27 04:52:04;;;;;;;6.80;5.32;;;5.70;59.20;;;;;;5007562;28;20085;-73
2021/04/27 04:54:30;;;;;;;10.32;6.45;;;5.70;59.20;;;;;;4995301;28;20053;-72
2021/04/27 04:56:55;;;;;;;8.25;6.15;;;5.70;59.20;;;;;;4995830;28;20042;-72
2021/04/27 04:59:22;;;;;;;8.32;6.40;;;5.70;59.90;;;;;;5010946;28;20056;-72
2021/04/27 05:01:47;;;;;;;8.38;6.00;;;5.70;59.30;;;;;;5010119;28;20046;-73
2021/04/27 05:04:13;;;;;;;7.05;6.35;;;5.70;59.30;;;;;;4994621;28;20513;-72
2021/04/27 05:06:43;;;;;;;6.53;5.70;;;5.70;59.30;;;;;;5010533;28;20129;-72
2021/04/27 05:09:09;;;;;;;9.80;6.28;;;5.70;59.30;;;;;;5010758;28;20402;-72
2021/04/27 05:11:35;;;;;;;8.98;6.47;;;5.70;59.30;;;;;;4996244;28;20050;-73
2021/04/27 05:14:01;;;;;;;8.18;6.47;;;5.70;59.10;;;;;;4994008;28;20121;-73
2021/04/27 05:16:27;;;;;;;13.30;6.85;;;5.70;59.20;;;;;;5010732;28;20479;-71
2021/04/27 05:18:55;;;;;;;9.13;6.05;;;5.70;59.10;;;;;;4993873;28;20121;-72
2021/04/27 05:21:21;;;;;;;11.90;6.72;;;5.70;59.10;;;;;;4994214;28;20047;-73
2021/04/27 05:23:47;;;;;;;10.05;6.43;;;5.70;58.90;;;;;;4993769;28;20126;-72
2021/04/27 05:26:15;;;;;;;9.43;6.60;;;5.70;58.90;;;;;;4978122;28;20244;-72
2021/04/27 05:28:41;;;;;;;8.55;6.57;;;5.70;58.90;;;;;;4994179;28;20042;-72
2021/04/27 05:31:07;;;;;;;12.07;6.93;;;5.80;58.90;;;;;;5010066;28;20056;-72
2021/04/27 05:33:32;;;;;;;9.40;6.55;;;5.80;58.90;;;;;;4994494;28;20042;-72
2021/04/27 05:35:58;;;;;;;9.95;6.22;;;5.80;58.70;;;;;;4994094;28;20044;-72
2021/04/27 05:38:24;;;;;;;7.85;5.88;;;5.80;58.60;;;;;;4994806;28;20042;-71
2021/04/27 05:40:50;;;;;;;8.00;5.85;;;5.80;58.60;;;;;;4994670;28;20050;-74
2021/04/27 05:43:16;;;;;;;8.07;6.20;;;5.80;58.60;;;;;;4994671;28;20149;-71
2021/04/27 05:45:42;;;;;;;8.05;6.03;;;5.80;58.50;;;;;;4994127;28;20054;-72
2021/04/27 05:48:08;;;;;;;8.75;6.35;;;5.80;58.50;;;;;;5010089;28;20339;-72
2021/04/27 05:50:37;;;;;;;6.53;5.82;;;5.90;58.50;;;;;;4994498;28;20046;-72
2021/04/27 05:53:04;;;;;;;6.95;5.70;;;5.90;58.40;;;;;;4994223;28;20042;-72
2021/04/27 05:55:32;;;;;;;6.85;5.72;;;5.90;58.20;;;;;;4995672;28;20510;-72
2021/04/27 05:57:58;;;;;;;7.07;5.93;;;6.00;58.30;;;;;;5010048;28;20133;-72
2021/04/27 06:00:24;;;;;;;8.57;5.68;;;6.00;58.30;;;;;;4995389;28;20464;-72
2021/04/27 06:02:50;;;;;;;8.18;5.80;;;6.00;58.20;;;;;;4993428;28;20046;-72
2021/04/27 06:05:16;;;;;;;8.35;5.80;;;6.00;58.30;;;;;;5009855;28;20042;-72
2021/04/27 06:07:42;;;;;;;6.97;5.20;;;6.10;58.30;;;;;;4995079;28;20054;-72
2021/04/27 06:10:08;;;;;;;9.25;5.72;;;6.10;58.30;;;;;;4994167;28;20387;-72
2021/04/27 06:12:35;;;;;;;8.52;5.38;;;6.10;57.80;;;;;;4993386;28;20100;-71
2021/04/27 06:15:01;;;;;;;7.32;5.85;;;6.10;57.80;;;;;;5008943;28;20062;-71
2021/04/27 06:17:27;;;;;;;11.65;5.88;;;6.20;57.80;;;;;;4994033;28;20050;-72
2021/04/27 06:19:53;;;;;;;7.38;5.60;;;6.20;57.60;;;;;;4992975;28;20053;-72
2021/04/27 06:22:20;;;;;;;7.78;5.43;;;6.20;57.70;;;;;;4993875;28;20046;-71
2021/04/27 06:24:46;;;;;;;6.45;4.97;;;6.20;57.30;;;;;;4977708;28;20666;-72
2021/04/27 06:27:12;;;;;;;7.00;5.55;;;6.30;57.40;;;;;;4976754;28;20066;-72
2021/04/27 06:29:38;;;;;;;8.57;5.57;;;6.30;57.40;;;;;;5013240;28;20050;-72
2021/04/27 06:32:04;;;;;;;5.70;4.57;;;6.30;57.20;;;;;;5000117;28;20481;-72
2021/04/27 06:34:31;;;;;;;9.02;5.32;;;6.30;57.30;;;;;;5000164;28;20042;-72
2021/04/27 06:36:56;;;;;;;6.72;4.95;;;6.30;57.10;;;;;;5033546;28;20052;-73
2021/04/27 06:39:22;;;;;;;7.15;5.30;;;6.40;57.20;;;;;;5016740;28;20042;-72
2021/04/27 06:41:51;;;;;;;6.18;5.28;;;6.40;57.00;;;;;;5034295;28;20448;-73
2021/04/27 06:44:16;;;;;;;7.68;4.95;;;6.40;57.00;;;;;;4999695;28;20049;-74
2021/04/27 06:46:42;;;;;;;7.82;5.13;;;6.40;57.00;;;;;;4999939;28;20048;-71
2021/04/27 06:49:08;;;;;;;6.75;5.05;;;6.50;57.00;;;;;;4998493;28;20080;-71
2021/04/27 06:51:34;;;;;;;7.53;5.18;;;6.50;57.60;;;;;;5033993;28;20095;-70
2021/04/27 06:54:00;;;;;;;6.97;4.70;;;6.60;57.10;;;;;;5032169;28;20136;-72
2021/04/27 06:56:25;;;;;;;6.65;4.35;;;6.60;57.00;;;;;;5034882;28;20053;-72
2021/04/27 06:58:51;;;;;;;5.70;4.28;;;6.60;56.90;;;;;;5003120;28;20475;-71
2021/04/27 07:01:17;;;;;;;6.72;4.68;;;6.60;56.60;;;;;;5018849;28;20048;-70
2021/04/27 07:03:47;;;;;;;5.47;4.47;;;6.70;56.60;;;;;;5036883;28;20056;-71
2021/04/27 07:06:16;;;;;;;5.28;3.80;;;6.70;56.70;;;;;;5018777;28;20045;-73
2021/04/27 07:08:44;;;;;;;6.18;4.45;;;6.70;57.10;;;;;;5002949;28;20038;-71
2021/04/27 07:11:10;;;;;;;5.22;4.03;;;6.80;57.20;;;;;;5018750;28;20059;-71
2021/04/27 07:13:36;;;;;;;4.80;3.92;;;6.80;57.10;;;;;;5019231;28;20048;-70
2021/04/27 07:16:02;;;;;;;6.43;4.45;;;6.90;57.00;;;;;;5019563;28;20037;-75
2021/04/27 07:18:27;;;;;;;6.28;4.10;;;6.90;57.10;;;;;;5037488;28;20124;-71
2021/04/27 07:20:53;;;;;;;7.30;4.30;;;6.90;57.20;;;;;;5036695;28;20186;-72
2021/04/27 07:23:19;;;;;;;6.93;3.92;;;7.00;57.40;;;;;;5018544;28;20041;-72
2021/04/27 07:25:45;;;;;;;5.82;3.60;;;7.00;57.20;;;;;;5036893;28;20048;-73
2021/04/27 07:28:10;;;;;;;5.00;4.03;;;7.10;57.10;;;;;;5002364;28;20426;-71
2021/04/27 07:30:36;;;;;;;5.85;4.40;;;7.10;56.80;;;;;;5002420;28;20045;-71
2021/04/27 07:33:03;;;;;;;6.80;3.90;;;7.20;57.40;;;;;;5036114;28;20466;-71
2021/04/27 07:35:29;;;;;;;7.70;3.75;;;7.20;57.30;;;;;;5036232;28;20042;-71
2021/04/27 07:37:55;;;;;;;4.00;3.17;;;7.20;57.50;;;;;;5002491;28;20076;-71
2021/04/27 07:40:21;;;;;;;5.63;3.90;;;7.30;57.90;;;;;;5037789;28;20084;-72
2021/04/27 07:42:46;;;;;;;8.80;4.10;;;7.30;57.60;;;;;;5039685;28;20120;-71
2021/04/27 07:45:14;;;;;;;5.55;3.47;;;7.40;57.60;;;;;;5021177;28;20048;-73
2021/04/27 07:47:39;;;;;;;6.93;3.78;;;7.40;57.10;;;;;;5021692;28;20065;-71
2021/04/27 07:50:06;;;;;;;5.25;3.83;;;7.50;56.20;;;;;;5004775;28;20437;-72
2021/04/27 07:52:33;;;;;;;4.93;4.10;;;7.50;56.10;;;;;;5004956;28;20068;-71
2021/04/27 07:55:00;;;;;;;6.53;3.72;;;7.60;55.80;;;;;;5005258;28;20144;-72
2021/04/27 07:57:25;;;;;;;6.22;3.67;;;7.60;55.60;;;;;;5015525;28;20508;-73
2021/04/27 07:59:51;;;;;;;4.90;3.40;;;7.70;56.40;;;;;;5017961;28;20045;-72
2021/04/27 08:02:17;;;;;;;4.65;3.45;;;7.70;55.30;;;;;;5038476;28;20046;-71
2021/04/27 08:04:45;;;;;;;5.63;3.47;;;7.70;55.50;;;;;;5021661;28;20486;-72
2021/04/27 08:07:11;;;;;;;5.70;3.25;;;7.80;55.50;;;;;;5038931;28;20051;-74
2021/04/27 08:09:37;;;;;;;5.40;3.22;;;7.90;55.70;;;;;;5039429;28;20095;-71
2021/04/27 08:12:03;;;;;;;4.70;3.28;;;7.90;55.70;;;;;;5005074;28;20359;-74
2021/04/27 08:14:29;;;;;;;5.93;3.35;;;8.00;55.20;;;;;;5015621;28;20370;-72
2021/04/27 08:16:55;;;;;;;6.35;3.63;;;8.00;55.00;;;;;;5015632;28;20507;-73
2021/04/27 08:19:20;;;;;;;7.90;5.63;;;8.10;55.40;;;;;;5032390;28;20052;-72
2021/04/27 08:21:46;;;;;;;6.93;3.78;;;8.10;54.60;;;;;;5033342;28;20121;-72
2021/04/27 08:24:12;;;;;;;5.88;3.78;;;8.20;54.40;;;;;;5032671;28;20049;-73
2021/04/27 08:26:38;;;;;;;5.75;3.20;;;8.30;55.00;;;;;;5032054;28;20419;-72
2021/04/27 08:29:05;;;;;;;6.15;3.33;;;8.30;54.10;;;;;;5015196;28;20053;-72
2021/04/27 08:31:36;;;;;;;5.30;3.50;;;8.40;53.60;;;;;;5007438;28;20491;-73
2021/04/27 08:34:04;;;;;;;6.20;3.38;;;8.40;52.90;;;;;;5008853;28;20129;-73
2021/04/27 08:36:29;;;;;;;4.97;3.00;;;8.50;53.30;;;;;;4993121;28;20042;-72
2021/04/27 08:38:55;;;;;;;7.20;3.75;;;8.60;53.40;;;;;;4992088;28;20049;-72
2021/04/27 08:41:23;;;;;;;5.15;3.20;;;8.60;53.70;;;;;;4993010;28;20053;-72
2021/04/27 08:43:49;;;;;;;6.80;3.60;;;8.70;52.90;;;;;;5007559;28;20061;-72
2021/04/27 08:46:16;;;;;;;6.63;3.30;;;8.70;52.40;;;;;;4991619;28;20042;-77
2021/04/27 08:48:47;;;;;;;7.65;3.55;;;8.80;51.60;;;;;;4992023;28;20046;-72
2021/04/27 08:51:14;;;;;;;7.18;3.35;;;8.90;51.20;;;;;;4991941;28;20038;-73
2021/04/27 08:53:39;;;;;;;6.25;3.50;;;9.00;51.50;;;;;;4991609;28;20049;-72
2021/04/27 08:56:08;;;;;;;6.35;3.40;;;9.00;51.10;;;;;;5008011;28;20038;-72
2021/04/27 08:58:34;;;;;;;7.60;3.53;;;9.10;51.50;;;;;;4991532;28;20459;-72
2021/04/27 09:01:02;;;;;;;5.40;3.40;;;9.20;51.50;;;;;;5007644;28;20042;-73
2021/04/27 09:03:44;;;;;;;5.25;3.05;;;9.30;50.70;;;;;;4992829;28;20088;-72
2021/04/27 09:06:27;;;;;;;5.53;3.35;;;9.30;49.70;;;;;;5007923;28;20050;-73
2021/04/27 09:08:53;;;;;;;5.95;3.47;;;9.40;49.50;;;;;;4975919;28;20065;-73
2021/04/27 09:11:34;;;;;;;6.85;3.40;;;9.50;49.30;;;;;;4991346;28;20396;-74
2021/04/27 09:14:05;;;;;;;6.10;3.13;;;9.60;49.50;;;;;;5007917;28;20042;-72
2021/04/27 09:16:31;;;;;;;6.00;3.72;;;9.70;48.30;;;;;;4992235;28;20117;-73
2021/04/27 09:18:57;;;;;;;6.88;3.35;;;9.80;48.40;;;;;;4991412;28;20563;-75
2021/04/27 09:21:31;;;;;;;6.25;3.60;;;10.00;48.50;;;;;;5007579;28;20050;-73
2021/04/27 09:23:57;;;;;;;5.35;3.25;;;10.10;47.50;;;;;;4991742;28;20123;-73
2021/04/27 09:26:23;;;;;;;4.60;3.28;;;10.20;47.40;;;;;;5007317;28;20042;-72
2021/04/27 09:28:57;;;;;;;5.00;3.53;;;10.30;46.90;;;;;;5007442;28;20224;-72
2021/04/27 09:31:30;;;;;;;5.38;3.28;;;10.50;46.40;;;;;;5006628;28;20407;-74
2021/04/27 09:34:16;;;;;;;6.80;3.30;;;10.70;46.20;;;;;;4991511;28;20038;-72
2021/04/27 09:36:45;;;;;;;4.43;2.95;;;10.80;46.40;;;;;;4990420;28;20050;-72
2021/04/27 09:39:14;;;;;;;5.10;2.80;;;11.00;46.30;;;;;;5007153;28;20050;-72
2021/04/27 09:41:40;;;;;;;5.03;3.30;;;11.20;46.20;;;;;;4990479;28;20049;-73
2021/04/27 09:44:31;;;;;;;4.20;2.92;;;11.40;45.80;;;;;;4992380;28;20125;-72
2021/04/27 09:47:14;;;;;;;4.25;2.70;;;11.60;45.60;;;;;;5004133;28;20156;-72
2021/04/27 09:49:40;;;;;;;6.63;3.30;;;11.90;45.60;;;;;;5006847;28;20058;-73
2021/04/27 09:52:08;;;;;;;4.57;2.95;;;12.10;45.60;;;;;;4990852;28;20093;-73
2021/04/27 09:54:37;;;;;;;4.20;2.85;;;12.30;45.00;;;;;;4974367;28;20046;-73
2021/04/27 09:57:03;;;;;;;6.20;3.15;;;12.40;44.90;;;;;;4991308;28;20077;-72
2021/04/27 09:59:30;;;;;;;4.40;2.92;;;12.50;44.70;;;;;;5006184;28;20042;-74
2021/04/27 10:02:06;;;;;;;5.53;3.08;;;12.70;44.80;;;;;;4991702;28;20050;-74
2021/04/27 10:04:32;;;;;;;4.78;3.50;;;12.90;43.90;;;;;;4990640;28;20100;-73
2021/04/27 10:06:58;;;;;;;6.07;3.28;;;13.00;43.80;;;;;;4990954;28;20058;-72
2021/04/27 10:09:23;;;;;;;4.18;2.90;;;13.20;43.90;;;;;;5007330;28;20133;-73
2021/04/27 10:11:51;;;;;;;7.13;3.95;;;13.40;43.80;;;;;;4990406;28;20043;-72
2021/04/27 10:14:17;;;;;;;7.35;3.35;;;13.50;43.40;;;;;;4991179;28;20052;-73
2021/04/27 10:16:45;;;;;;;5.72;3.00;;;13.70;43.30;;;;;;4991629;28;20046;-72
2021/04/27 10:19:17;;;;;;;6.38;3.67;;;13.90;43.00;;;;;;4991076;28;20050;-72
2021/04/27 10:21:44;;;;;;;6.30;2.92;;;14.00;42.80;;;;;;5006508;28;20093;-73
2021/04/27 10:24:15;;;;;;;4.85;2.92;;;14.20;43.10;;;;;;4992003;28;20054;-74
2021/04/27 10:26:46;;;;;;;4.47;3.20;;;14.30;43.10;;;;;;4990210;28;20046;-72
2021/04/27 10:29:20;;;;;;;4.30;2.90;;;14.60;43.20;;;;;;5006997;28;20038;-72
2021/04/27 10:31:47;;;;;;;4.47;2.88;;;14.80;42.50;;;;;;5006250;28;20105;-72
2021/04/27 10:34:15;;;;;;;3.83;3.00;;;14.90;42.50;;;;;;4991982;28;20050;-72
2021/04/27 10:36:49;;;;;;;6.13;3.05;;;15.10;42.30;;;;;;4990030;28;20042;-72
2021/04/27 10:39:39;;;;;;;4.50;2.80;;;15.30;42.10;;;;;;5006580;28;20145;-73
2021/04/27 10:42:30;;;;;;;8.27;3.08;;;15.50;42.10;;;;;;4991169;28;20056;-71
2021/04/27 10:44:58;;;;;;;4.47;2.45;;;15.70;41.60;;;;;;4991399;28;20042;-72
2021/04/27 10:47:28;;;;;;;5.15;2.80;;;15.90;41.80;;;;;;4990779;28;20109;-73
2021/04/27 10:49:55;;;;;;;4.82;2.58;;;16.10;41.20;;;;;;4989570;28;20145;-73
2021/04/27 10:52:34;;;;;;;3.88;2.85;;;16.30;41.30;;;;;;4991759;28;20196;-72
2021/04/27 10:55:26;;;;;;;3.45;2.50;;;16.40;40.60;;;;;;4990457;28;20053;-74
2021/04/27 10:57:59;;;;;;;5.85;2.90;;;16.60;40.10;;;;;;5005850;28;20038;-73
2021/04/27 11:00:39;;;;;;;5.13;2.80;;;16.80;40.00;;;;;;5006345;28;20054;-73
2021/04/27 11:03:11;;;;;;;3.90;2.25;;;17.00;39.30;;;;;;4990247;28;20050;-72
2021/04/27 11:05:51;;;;;;;5.00;2.20;;;17.10;39.00;;;;;;5005757;28;20129;-72
2021/04/27 11:08:17;;;;;;;4.40;2.72;;;17.30;38.30;;;;;;4990128;28;20105;-74
2021/04/27 11:10:44;;;;;;;6.35;2.67;;;17.50;38.10;;;;;;4989857;28;20050;-73
2021/04/27 11:13:12;;;;;;;4.22;2.20;;;17.60;38.00;;;;;;4991043;28;20038;-72
2021/04/27 11:15:42;;;;;;;3.90;2.58;;;17.90;37.90;;;;;;4993554;28;20049;-73
2021/04/27 11:18:18;;;;;;;4.30;2.58;;;18.10;38.30;;;;;;5009908;28;20050;-72
2021/04/27 11:21:11;;;;;;;4.53;2.35;;;18.30;37.30;;;;;;4993724;28;20070;-73
2021/04/27 11:23:40;;;;;;;4.07;2.42;;;18.50;36.10;;;;;;4994639;28;20061;-74
2021/04/27 11:26:33;;;;;;;6.68;2.42;;;18.80;36.40;;;;;;5010152;28;20054;-73
2021/04/27 11:29:19;;;;;;;4.80;2.42;;;19.00;35.20;;;;;;5009351;28;20372;-73
2021/04/27 11:32:07;;;;;;;3.70;2.33;;;19.30;34.50;;;;;;5008743;28;20137;-73
2021/04/27 11:34:55;;;;;;;3.22;2.63;;;19.60;33.60;;;;;;4994843;28;20046;-74
2021/04/27 11:37:31;;;;;;;3.78;2.83;;;19.80;32.30;;;;;;5009884;28;20065;-72
2021/04/27 11:39:57;;;;;;;3.97;3.00;;;20.00;32.40;;;;;;5009426;28;20046;-72
2021/04/27 11:42:31;;;;;;;4.13;2.70;;;20.20;32.20;;;;;;5009485;28;20050;-73
2021/04/27 11:45:03;;;;;;;3.90;2.67;;;20.40;31.90;;;;;;4993888;28;20411;-73
2021/04/27 11:47:33;;;;;;;5.55;2.70;;;20.70;31.70;;;;;;4994801;28;20121;-72
2021/04/27 11:50:02;;;;;;;3.70;2.90;;;21.00;31.50;;;;;;4994007;28;20339;-73
2021/04/27 11:52:45;;;;;;;3.80;2.78;;;21.20;30.90;;;;;;5009454;28;20053;-72
2021/04/27 11:55:25;;;;;;;4.82;2.80;;;21.30;29.60;;;;;;4992916;28;20042;-73
2021/04/27 11:57:58;;;;;;;5.80;2.80;;;21.50;29.80;;;;;;5007635;28;20042;-73
2021/04/27 12:00:50;;;;;;;4.50;2.30;;;21.70;29.40;;;;;;5009213;28;20104;-72
2021/04/27 12:03:31;;;;;;;3.33;2.30;;;21.90;28.90;;;;;;4994451;28;20045;-72
2021/04/27 12:06:15;;;;;;;3.92;2.30;;;22.00;29.20;;;;;;5007920;28;20046;-72
2021/04/27 12:08:53;;;;;;;4.05;2.22;;;22.30;28.60;;;;;;5008673;28;20399;-73
2021/04/27 12:11:20;;;;;;;2.80;2.33;;;22.40;28.20;;;;;;5008195;28;20053;-72
2021/04/27 12:13:59;;;;;;;3.03;2.45;;;22.50;28.00;;;;;;4993603;28;20049;-72
2021/04/27 12:16:29;;;;;;;4.38;2.10;;;22.70;27.40;;;;;;4994155;28;20137;-74
2021/04/27 12:19:01;;;;;;;5.03;2.50;;;22.80;27.40;;;;;;4993539;28;20046;-72
2021/04/27 12:21:27;;;;;;;;;;;22.80;27.10;;;;;;5009617;28;20054;-73
2021/04/27 12:24:26;;;;;;;3.28;2.45;;;22.90;26.10;;;;;;4993372;28;20413;-73
2021/04/27 12:27:09;;;;;;;3.28;2.63;;;23.00;26.10;;;;;;4970984;28;20062;-73
2021/04/27 12:29:42;;;;;;;4.45;2.40;;;23.00;26.10;;;;;;4992430;28;20069;-72
2021/04/27 12:32:14;;;;;;;6.32;3.08;;;23.10;26.20;;;;;;5011381;28;20046;-72
2021/04/27 12:34:57;;;;;;;4.57;2.53;;;23.10;26.00;;;;;;5012325;28;20085;-73
2021/04/27 12:37:25;;;;;;;6.10;3.50;;;23.20;26.30;;;;;;5011744;28;20049;-72
2021/04/27 12:39:52;;;;;;;4.00;2.45;;;23.30;25.80;;;;;;5012770;28;20049;-73
2021/04/27 12:42:22;;;;;;;4.47;3.33;;;23.40;25.70;;;;;;4996007;28;20054;-73
2021/04/27 12:45:04;;;;;;;4.63;3.20;;;23.40;25.30;;;;;;4995876;28;20045;-75
2021/04/27 12:47:31;;;;;;;4.78;3.22;;;23.50;25.20;;;;;;4997011;28;20049;-71
2021/04/27 12:50:11;;;;;;;6.88;2.95;;;23.60;25.20;;;;;;5011412;28;20045;-72
2021/04/27 12:52:51;;;;;;;4.65;3.08;;;23.60;24.80;;;;;;4995709;28;20050;-72
2021/04/27 12:55:26;;;;;;;5.45;3.40;;;23.70;24.90;;;;;;5013140;28;20046;-72
2021/04/27 12:58:07;;;;;;;4.90;3.70;;;23.70;24.80;;;;;;4994925;28;20042;-73
2021/04/27 13:00:33;;;;;;;4.32;3.80;;;23.80;25.20;;;;;;5011713;28;20048;-72
2021/04/27 13:03:16;;;;;;;4.38;3.58;;;23.90;25.20;;;;;;5011076;28;20050;-72